Карточка аэропорта USTR

Внимание!
Информация на этой странице в стадии наполнения.
Если вы не увидели какой-то информации, или заметили неточность - пожалуйста сообщите нам!
Спасибо!
Команда RU-STAFF
Название аэропортаРощино
Название аэропорта (англ.)Roshschino
Превышение378 ft. (115.2 m.)
Координаты57°10.098', 65°19.002'
Высота перехода3000ft
Эшелон переходаQNH⩾1013hPa:FL040; QNH⩾977hPa:FL050; QNH⩽977hPa:FL060
Коды ответчика5101-5137
Зона ОрВДТюмень РПИ (USTV)
Данные METARUSTR 182000Z 02006MPS 9999 FEW///CB 06/01 Q1015 R03/190063 R30/190063 NOSIG
Проноз погоды (TAF)USTR 181640Z 1818/1918 01005G14MPS 9999 BKN020CB TEMPO 1818/1824 -SHRA BKN006 BKN016CB FM190000 04006G14MPS 9999 BKN020 TEMPO 1900/1915 03008G17MPS BECMG 1915/1917 05003G08MPS
NOTAMshow/hide NOTAM
AWOS   TABLE

Информация о ВПП

ВПП Длина ВПП (м.) Покрытие Курс ВПП Частота ILS
302704Асфальтобетон301 
213003Асфальтобетон214110.7
122704Асфальтобетон121 
033003Асфальтобетон34108.3

Диспетчерские позиции

Позывной Наименование органа УВД Частота
USTR_R_APPТюмень-Круг126.100
USTR_GNDТюмень-Руление119.000
USTR_TWRТюмень-Старт118.200



Спутниковое изображение